createdAt,value
2019-02-22T00:01:33.053Z,8.30
2019-02-22T00:04:02.345Z,8.30
2019-02-22T00:06:32.824Z,8.20
2019-02-22T00:09:02.349Z,8.30
2019-02-22T00:11:33.265Z,8.40
2019-02-22T00:14:02.628Z,8.30
2019-02-22T00:16:32.473Z,8.40
2019-02-22T00:19:02.052Z,8.40
2019-02-22T00:21:31.336Z,8.40
2019-02-22T00:24:00.634Z,8.40
2019-02-22T00:26:29.924Z,8.40
2019-02-22T00:28:59.220Z,8.40
2019-02-22T00:31:28.767Z,8.40
2019-02-22T00:33:59.113Z,8.40
2019-02-22T00:36:28.476Z,8.30
2019-02-22T00:38:57.766Z,8.30
2019-02-22T00:41:27.078Z,8.20
2019-02-22T00:43:56.372Z,8.30
2019-02-22T00:46:25.666Z,8.20
2019-02-22T00:48:56.029Z,8.30
2019-02-22T00:51:25.317Z,8.30
2019-02-22T00:53:54.619Z,8.30
2019-02-22T00:56:24.145Z,8.40
2019-02-22T00:58:53.436Z,8.50
2019-02-22T01:01:22.741Z,8.50
2019-02-22T01:03:52.040Z,8.50
2019-02-22T01:06:21.336Z,8.50
2019-02-22T01:08:50.696Z,8.60
2019-02-22T01:11:19.992Z,8.70
2019-02-22T01:13:49.284Z,8.80
2019-02-22T01:16:18.842Z,8.90
2019-02-22T01:18:48.182Z,8.90
2019-02-22T01:21:17.472Z,9.00
2019-02-22T01:23:46.762Z,9.00
2019-02-22T01:26:16.058Z,9.10
2019-02-22T01:28:45.348Z,9.10
2019-02-22T01:31:14.644Z,9.10
2019-02-22T01:33:43.940Z,9.00
2019-02-22T01:36:13.265Z,9.00
2019-02-22T01:38:42.740Z,9.00
2019-02-22T01:41:12.272Z,9.10
2019-02-22T01:43:41.572Z,9.10
2019-02-22T01:46:11.097Z,9.10
2019-02-22T01:48:40.398Z,9.10
2019-02-22T01:51:09.681Z,9.00
2019-02-22T01:53:38.979Z,9.10
2019-02-22T01:56:08.278Z,9.10
2019-02-22T01:58:47.944Z,9.10
2019-02-22T02:01:08.598Z,9.10
2019-02-22T02:03:37.965Z,9.10
2019-02-22T02:06:07.489Z,9.10
2019-02-22T02:08:36.784Z,9.10
2019-02-22T02:11:06.080Z,9.10
2019-02-22T02:13:35.384Z,9.10
2019-02-22T02:16:04.672Z,9.10
2019-02-22T02:18:34.044Z,9.10
2019-02-22T02:21:03.346Z,9.10
2019-02-22T02:23:32.937Z,9.10
2019-02-22T02:26:02.236Z,9.10
2019-02-22T02:28:32.104Z,9.10
2019-02-22T02:31:01.405Z,9.10
2019-02-22T02:33:30.703Z,9.10
2019-02-22T02:36:00.026Z,9.10
2019-02-22T02:38:29.313Z,9.20
2019-02-22T02:41:07.209Z,9.20
2019-02-22T02:43:29.597Z,9.20
2019-02-22T02:45:58.913Z,9.20
2019-02-22T02:48:28.213Z,9.20
2019-02-22T02:50:57.488Z,9.20
2019-02-22T02:53:26.855Z,9.20
2019-02-22T02:55:56.141Z,9.20
2019-02-22T02:58:25.446Z,9.20
2019-02-22T03:00:54.736Z,9.20
2019-02-22T03:03:24.036Z,9.20
2019-02-22T03:05:54.981Z,9.10
2019-02-22T03:08:25.870Z,9.10
2019-02-22T03:10:55.162Z,9.10
2019-02-22T03:13:24.453Z,9.10
2019-02-22T03:15:53.752Z,9.10
2019-02-22T03:18:23.036Z,9.10
2019-02-22T03:20:52.577Z,9.20
2019-02-22T03:23:21.864Z,9.20
2019-02-22T03:25:51.405Z,9.10
2019-02-22T03:28:20.692Z,9.10
2019-02-22T03:30:50.002Z,9.10
2019-02-22T03:33:19.297Z,9.10
2019-02-22T03:35:49.562Z,9.10
2019-02-22T03:38:18.863Z,9.10
2019-02-22T03:40:48.409Z,9.10
2019-02-22T03:43:17.706Z,9.10
2019-02-22T03:45:47.022Z,9.10
2019-02-22T03:48:16.314Z,9.00
2019-02-22T03:50:45.603Z,9.00
2019-02-22T03:53:16.538Z,9.00
2019-02-22T03:55:46.064Z,9.00
2019-02-22T03:58:15.377Z,9.00
2019-02-22T04:00:44.664Z,9.00
2019-02-22T04:03:13.952Z,9.00
2019-02-22T04:05:43.252Z,9.00
2019-02-22T04:08:12.545Z,9.00
2019-02-22T04:10:41.838Z,9.00
2019-02-22T04:13:11.121Z,9.00
2019-02-22T04:15:40.429Z,9.00
2019-02-22T04:18:09.712Z,9.10
2019-02-22T04:20:38.997Z,9.10
2019-02-22T04:23:08.301Z,9.00
2019-02-22T04:25:37.595Z,9.10
2019-02-22T04:28:06.869Z,9.10
2019-02-22T04:30:37.981Z,9.10
2019-02-22T04:33:07.237Z,9.10
2019-02-22T04:35:36.541Z,9.10
2019-02-22T04:38:06.070Z,9.20
2019-02-22T04:40:35.349Z,9.20
2019-02-22T04:43:04.641Z,9.20
2019-02-22T04:45:33.950Z,9.20
2019-02-22T04:48:03.639Z,9.20
2019-02-22T04:50:33.059Z,9.20
2019-02-22T04:53:02.343Z,9.10
2019-02-22T04:55:31.631Z,9.20
2019-02-22T04:58:00.925Z,9.10
2019-02-22T05:00:30.204Z,9.10
2019-02-22T05:02:59.484Z,9.10
2019-02-22T05:05:28.777Z,9.20
2019-02-22T05:07:58.308Z,9.20
2019-02-22T05:10:27.597Z,9.20
2019-02-22T05:12:57.116Z,9.20
2019-02-22T05:15:26.413Z,9.10
2019-02-22T05:17:55.696Z,9.10
2019-02-22T05:20:24.989Z,9.10
2019-02-22T05:23:03.432Z,9.20
2019-02-22T05:25:25.276Z,9.20
2019-02-22T05:27:54.564Z,9.10
2019-02-22T05:30:23.849Z,9.10
2019-02-22T05:32:53.382Z,9.20
2019-02-22T05:35:22.670Z,9.10
2019-02-22T05:37:52.201Z,9.10
2019-02-22T05:40:21.507Z,9.10
2019-02-22T05:42:50.786Z,9.10
2019-02-22T05:45:20.076Z,9.10
2019-02-22T05:47:50.580Z,9.10
2019-02-22T05:50:19.874Z,9.10
2019-02-22T05:52:49.184Z,9.10
2019-02-22T05:55:18.469Z,9.10
2019-02-22T05:57:48.747Z,9.10
2019-02-22T06:00:18.698Z,9.10
2019-02-22T06:02:47.993Z,9.10
2019-02-22T06:05:17.287Z,9.10
2019-02-22T06:07:46.556Z,9.10
2019-02-22T06:10:15.851Z,9.10
2019-02-22T06:12:45.135Z,9.10
2019-02-22T06:15:14.418Z,9.10
2019-02-22T06:17:44.552Z,9.10
2019-02-22T06:20:14.256Z,9.10
2019-02-22T06:22:43.548Z,9.10
2019-02-22T06:25:13.099Z,9.10
2019-02-22T06:27:42.393Z,9.10
2019-02-22T06:30:11.689Z,9.10
2019-02-22T06:32:42.258Z,9.10
2019-02-22T06:35:11.851Z,9.10
2019-02-22T06:37:41.130Z,9.10
2019-02-22T06:40:10.505Z,9.10
2019-02-22T06:42:45.837Z,9.10
2019-02-22T06:45:10.769Z,9.10
2019-02-22T06:47:40.081Z,9.10
2019-02-22T06:50:09.426Z,9.10
2019-02-22T06:52:38.719Z,9.10
2019-02-22T06:55:08.080Z,9.10
2019-02-22T06:57:38.293Z,9.20
2019-02-22T07:00:12.785Z,9.20
2019-02-22T07:02:42.453Z,9.20
2019-02-22T07:05:11.803Z,9.20
2019-02-22T07:07:42.293Z,9.30
2019-02-22T07:10:11.583Z,9.40
2019-02-22T07:12:56.176Z,9.60
2019-02-22T07:15:16.173Z,9.70
2019-02-22T07:17:45.688Z,9.90
2019-02-22T07:20:14.975Z,10.00
2019-02-22T07:22:44.274Z,10.00
2019-02-22T07:25:13.559Z,10.00
2019-02-22T07:27:42.840Z,9.90
2019-02-22T07:30:12.124Z,9.80
2019-02-22T07:32:41.458Z,9.70
2019-02-22T07:35:13.987Z,9.60
2019-02-22T07:37:42.980Z,9.70
2019-02-22T07:40:13.548Z,9.80
2019-02-22T07:42:42.831Z,9.90
2019-02-22T07:45:12.419Z,9.80
2019-02-22T07:47:41.760Z,9.90
2019-02-22T07:50:11.231Z,9.90
2019-02-22T07:52:41.569Z,10.20
2019-02-22T07:55:11.154Z,10.60
2019-02-22T07:57:40.800Z,11.80
2019-02-22T08:00:14.497Z,11.80
2019-02-22T08:02:44.083Z,11.50
2019-02-22T08:05:13.367Z,11.30
2019-02-22T08:07:42.660Z,11.10
2019-02-22T08:10:12.009Z,11.00
2019-02-22T08:12:41.620Z,11.10
2019-02-22T08:15:11.102Z,11.20
2019-02-22T08:17:40.684Z,11.20
2019-02-22T08:20:10.027Z,11.20
2019-02-22T08:22:39.914Z,11.10
2019-02-22T08:25:09.265Z,11.00
2019-02-22T08:27:40.269Z,11.00
2019-02-22T08:30:11.637Z,10.90
2019-02-22T08:32:41.632Z,11.10
2019-02-22T08:35:10.917Z,11.10
2019-02-22T08:37:40.217Z,11.10
2019-02-22T08:40:10.637Z,11.30
2019-02-22T08:42:40.161Z,11.70
2019-02-22T08:45:11.320Z,11.80
2019-02-22T08:47:40.611Z,11.50
2019-02-22T08:50:10.025Z,11.50
2019-02-22T08:52:39.316Z,11.50
2019-02-22T08:55:08.676Z,11.40
2019-02-22T08:57:38.032Z,11.40
2019-02-22T09:00:13.091Z,11.50
2019-02-22T09:02:42.367Z,11.50
2019-02-22T09:05:11.676Z,11.50
2019-02-22T09:07:41.264Z,11.60
2019-02-22T09:10:13.308Z,12.00
2019-02-22T09:12:42.585Z,13.10
2019-02-22T09:15:11.960Z,12.90
2019-02-22T09:17:41.228Z,12.90
2019-02-22T09:20:12.065Z,13.00
2019-02-22T09:22:41.398Z,13.00
2019-02-22T09:25:10.676Z,12.60
2019-02-22T09:27:39.953Z,12.40
2019-02-22T09:30:11.383Z,12.50
2019-02-22T09:32:40.675Z,12.90
2019-02-22T09:35:11.109Z,12.90
2019-02-22T09:37:40.384Z,13.10
2019-02-22T09:40:11.317Z,13.40
2019-02-22T09:42:40.816Z,14.00
2019-02-22T09:45:13.120Z,13.80
2019-02-22T09:47:42.401Z,14.60
2019-02-22T09:50:13.919Z,18.00
2019-02-22T09:52:43.195Z,16.30
2019-02-22T09:55:13.785Z,15.30
2019-02-22T09:57:43.058Z,14.70
2019-02-22T10:00:14.025Z,14.30
2019-02-22T10:02:44.800Z,13.80
2019-02-22T10:05:14.631Z,14.10
2019-02-22T10:07:43.916Z,15.20
2019-02-22T10:10:13.267Z,16.00
2019-02-22T10:12:42.559Z,16.00
2019-02-22T10:15:11.828Z,14.60
2019-02-22T10:17:41.143Z,13.80
2019-02-22T10:20:10.793Z,13.60
2019-02-22T10:22:41.140Z,13.50
2019-02-22T10:25:10.435Z,13.10
2019-02-22T10:27:39.692Z,13.00
2019-02-22T10:30:11.514Z,13.00
2019-02-22T10:32:40.863Z,13.20
2019-02-22T10:35:10.372Z,13.80
2019-02-22T10:37:39.882Z,16.40
2019-02-22T10:40:10.116Z,18.50
2019-02-22T10:42:39.388Z,18.60
2019-02-22T10:45:10.316Z,18.10
2019-02-22T10:47:39.592Z,17.10
2019-02-22T10:50:09.331Z,16.10
2019-02-22T10:52:38.608Z,15.50
2019-02-22T10:55:10.327Z,14.70
2019-02-22T10:57:40.607Z,14.40
2019-02-22T11:00:14.678Z,14.00
2019-02-22T11:02:43.351Z,13.80
2019-02-22T11:05:12.624Z,13.60
2019-02-22T11:07:42.149Z,13.60
2019-02-22T11:10:13.364Z,13.60
2019-02-22T11:12:42.792Z,13.50
2019-02-22T11:15:13.783Z,13.30
2019-02-22T11:17:43.066Z,13.20
2019-02-22T11:20:12.509Z,13.00
2019-02-22T11:22:41.798Z,12.90
2019-02-22T11:25:14.088Z,12.70
2019-02-22T11:27:43.366Z,12.70
2019-02-22T11:30:14.191Z,12.70
2019-02-22T11:32:43.703Z,12.60
2019-02-22T11:35:12.987Z,12.80
2019-02-22T11:37:42.334Z,13.10
2019-02-22T11:40:11.885Z,15.90
2019-02-22T11:42:42.240Z,15.40
2019-02-22T11:45:11.743Z,14.50
2019-02-22T11:47:41.056Z,13.80
2019-02-22T11:50:11.728Z,13.40
2019-02-22T11:52:41.326Z,13.10
2019-02-22T11:55:11.463Z,13.00
2019-02-22T11:57:40.777Z,12.80
2019-02-22T12:00:14.816Z,12.80
2019-02-22T12:02:45.339Z,12.70
2019-02-22T12:05:14.919Z,12.30
2019-02-22T12:07:44.212Z,12.20
2019-02-22T12:10:14.262Z,12.30
2019-02-22T12:12:43.768Z,12.20
2019-02-22T12:15:14.262Z,12.00
2019-02-22T12:17:43.612Z,11.90
2019-02-22T12:20:12.960Z,11.70
2019-02-22T12:22:42.474Z,11.50
2019-02-22T12:25:12.991Z,11.60
2019-02-22T12:27:42.295Z,11.60
2019-02-22T12:30:16.824Z,11.70
2019-02-22T12:32:46.110Z,11.70
2019-02-22T12:35:15.684Z,11.80
2019-02-22T12:37:45.086Z,11.90
2019-02-22T12:40:14.365Z,11.90
2019-02-22T12:42:43.638Z,11.80
2019-02-22T12:45:13.823Z,11.70
2019-02-22T12:47:43.336Z,11.60
2019-02-22T12:50:13.447Z,11.60
2019-02-22T12:52:42.960Z,11.50
2019-02-22T12:55:12.248Z,11.50
2019-02-22T12:57:43.062Z,11.50
2019-02-22T13:00:19.599Z,11.30
2019-02-22T13:02:48.960Z,11.30
2019-02-22T13:05:21.086Z,11.20
2019-02-22T13:07:52.565Z,11.20
2019-02-22T13:10:21.344Z,11.30
2019-02-22T13:12:50.643Z,11.40
2019-02-22T13:15:20.132Z,11.30
2019-02-22T13:17:49.420Z,11.40
2019-02-22T13:20:18.707Z,11.40
2019-02-22T13:22:48.011Z,11.20
2019-02-22T13:25:17.532Z,11.30
2019-02-22T13:27:46.812Z,11.30
2019-02-22T13:30:16.091Z,11.40
2019-02-22T13:32:45.400Z,11.40
2019-02-22T13:35:14.674Z,11.60
2019-02-22T13:37:44.179Z,11.50
2019-02-22T13:40:17.602Z,11.60
2019-02-22T13:42:47.108Z,11.60
2019-02-22T13:45:26.125Z,11.50
2019-02-22T13:47:47.547Z,11.50
2019-02-22T13:50:18.407Z,11.50
2019-02-22T13:52:47.703Z,11.50
2019-02-22T13:55:16.982Z,11.60
2019-02-22T13:57:46.267Z,11.60
2019-02-22T14:00:17.580Z,11.70
2019-02-22T14:02:46.859Z,11.70
2019-02-22T14:05:16.144Z,11.80
2019-02-22T14:07:55.445Z,11.90
2019-02-22T14:10:25.864Z,12.00
2019-02-22T14:12:55.296Z,12.10
2019-02-22T14:15:24.672Z,12.10
2019-02-22T14:17:54.236Z,12.10
2019-02-22T14:20:23.737Z,12.00
2019-02-22T14:22:53.037Z,12.00
2019-02-22T14:25:22.313Z,12.00
2019-02-22T14:27:51.823Z,12.00
2019-02-22T14:30:21.108Z,12.00
2019-02-22T14:32:50.400Z,12.00
2019-02-22T14:35:19.689Z,11.80
2019-02-22T14:37:49.010Z,11.70
2019-02-22T14:40:18.280Z,11.70
2019-02-22T14:42:48.045Z,11.70
2019-02-22T14:45:17.331Z,11.60
2019-02-22T14:47:46.626Z,11.60
2019-02-22T14:50:17.887Z,11.60
2019-02-22T14:52:47.401Z,11.60
2019-02-22T14:55:16.921Z,11.50
2019-02-22T14:57:46.206Z,11.60
2019-02-22T15:00:17.703Z,11.70
2019-02-22T15:02:47.048Z,11.70
2019-02-22T15:05:16.407Z,11.70
2019-02-22T15:07:45.756Z,11.80
2019-02-22T15:10:15.031Z,11.80
2019-02-22T15:12:44.308Z,11.70
2019-02-22T15:15:20.990Z,11.70
2019-02-22T15:17:54.584Z,11.70
2019-02-22T15:20:24.096Z,11.70
2019-02-22T15:22:53.373Z,11.70
2019-02-22T15:25:22.655Z,11.60
2019-02-22T15:27:51.944Z,11.60
2019-02-22T15:30:21.224Z,11.60
2019-02-22T15:32:50.511Z,11.50
2019-02-22T15:35:19.788Z,11.50
2019-02-22T15:37:49.312Z,11.40
2019-02-22T15:40:18.600Z,11.40
2019-02-22T15:42:48.134Z,11.40
2019-02-22T15:45:18.776Z,11.40
2019-02-22T15:47:49.012Z,11.40
2019-02-22T15:50:19.193Z,11.40
2019-02-22T15:52:49.982Z,11.30
2019-02-22T15:55:19.331Z,11.20
2019-02-22T15:57:48.635Z,11.10
2019-02-22T16:00:23.835Z,11.00
2019-02-22T16:02:53.200Z,11.00
2019-02-22T16:05:24.482Z,10.90
2019-02-22T16:07:53.763Z,10.80
2019-02-22T16:10:23.300Z,10.70
2019-02-22T16:12:52.591Z,10.70
2019-02-22T16:15:21.944Z,10.70
2019-02-22T16:17:51.224Z,10.60
2019-02-22T16:20:20.761Z,10.60
2019-02-22T16:22:51.424Z,10.60
2019-02-22T16:25:20.912Z,10.60
2019-02-22T16:27:50.192Z,10.70
2019-02-22T16:30:21.120Z,10.60
2019-02-22T16:32:50.552Z,10.60
2019-02-22T16:35:19.827Z,10.50
2019-02-22T16:37:49.117Z,10.40
2019-02-22T16:40:18.387Z,10.30
2019-02-22T16:42:48.107Z,10.20
2019-02-22T16:45:17.851Z,10.30
2019-02-22T16:47:47.400Z,10.20
2019-02-22T16:50:16.677Z,10.20
2019-02-22T16:52:46.023Z,10.10
2019-02-22T16:55:16.164Z,10.00
2019-02-22T16:57:45.494Z,9.90
2019-02-22T17:00:16.416Z,9.80
2019-02-22T17:02:45.794Z,9.60
2019-02-22T17:05:17.861Z,9.60
2019-02-22T17:07:47.145Z,9.50
2019-02-22T17:10:16.421Z,9.40
2019-02-22T17:12:45.698Z,9.30
2019-02-22T17:15:15.347Z,9.20
2019-02-22T17:17:44.908Z,9.10
2019-02-22T17:20:17.363Z,9.00
2019-02-22T17:22:47.154Z,9.00
2019-02-22T17:25:18.739Z,9.00
2019-02-22T17:27:48.146Z,8.90
2019-02-22T17:30:19.232Z,8.80
2019-02-22T17:32:48.516Z,8.70
2019-02-22T17:35:17.791Z,8.70
2019-02-22T17:37:48.157Z,8.60
2019-02-22T17:40:20.755Z,8.50
2019-02-22T17:42:50.050Z,8.40
2019-02-22T17:45:19.345Z,8.30
2019-02-22T17:47:48.628Z,8.20
2019-02-22T17:50:17.989Z,8.10
2019-02-22T17:52:47.263Z,8.10
2019-02-22T17:55:16.556Z,8.10
2019-02-22T17:57:49.720Z,8.00
2019-02-22T18:00:20.632Z,8.00
2019-02-22T18:02:49.983Z,8.00
2019-02-22T18:05:19.306Z,8.00
2019-02-22T18:07:48.688Z,7.90
2019-02-22T18:10:18.491Z,7.80
2019-02-22T18:12:49.416Z,7.80
2019-02-22T18:15:18.688Z,7.80
2019-02-22T18:17:48.139Z,7.70
2019-02-22T18:20:17.435Z,7.70
2019-02-22T18:22:46.716Z,7.60
2019-02-22T18:25:15.997Z,7.60
2019-02-22T18:27:45.325Z,7.50
2019-02-22T18:30:20.575Z,7.40
2019-02-22T18:32:49.855Z,7.30
2019-02-22T18:35:19.812Z,7.20
2019-02-22T18:37:49.094Z,7.20
2019-02-22T18:40:22.600Z,7.10
2019-02-22T18:42:51.884Z,7.10
2019-02-22T18:45:21.179Z,7.00
2019-02-22T18:47:50.456Z,6.90
2019-02-22T18:50:19.736Z,6.90
2019-02-22T18:52:49.019Z,6.90
2019-02-22T18:55:18.295Z,6.90
2019-02-22T18:57:47.860Z,6.90
2019-02-22T19:00:20.904Z,7.00
2019-02-22T19:02:50.255Z,7.00
2019-02-22T19:05:19.756Z,6.80
2019-02-22T19:07:49.051Z,6.60
2019-02-22T19:10:19.178Z,6.50
2019-02-22T19:12:48.496Z,6.50
2019-02-22T19:15:17.777Z,6.40
2019-02-22T19:17:47.172Z,6.40
2019-02-22T19:20:20.784Z,6.40
2019-02-22T19:22:50.139Z,6.50
2019-02-22T19:25:19.416Z,6.50
2019-02-22T19:27:48.768Z,6.50
2019-02-22T19:30:23.608Z,6.60
2019-02-22T19:32:52.880Z,6.50
2019-02-22T19:35:22.167Z,6.40
2019-02-22T19:37:51.677Z,6.30
2019-02-22T19:40:22.900Z,6.20
2019-02-22T19:42:52.187Z,6.00
2019-02-22T19:45:21.467Z,6.00
2019-02-22T19:47:50.752Z,6.00
2019-02-22T19:50:20.028Z,5.90
2019-02-22T19:52:49.306Z,5.80
2019-02-22T19:55:19.636Z,5.90
2019-02-22T19:57:48.912Z,5.90
2019-02-22T20:00:19.033Z,6.20
2019-02-22T20:02:48.534Z,6.60
2019-02-22T20:05:17.948Z,6.80
2019-02-22T20:07:47.220Z,6.90
2019-02-22T20:10:21.103Z,6.90
2019-02-22T20:12:50.701Z,6.90
2019-02-22T20:15:20.048Z,7.00
2019-02-22T20:17:54.670Z,7.00
2019-02-22T20:20:20.815Z,6.90
2019-02-22T20:22:51.188Z,6.90
2019-02-22T20:25:20.532Z,6.90
2019-02-22T20:27:49.820Z,6.80
2019-02-22T20:30:19.736Z,6.80
2019-02-22T20:32:49.077Z,6.80
2019-02-22T20:35:21.769Z,6.70
2019-02-22T20:37:52.947Z,6.70
2019-02-22T20:40:22.241Z,6.70
2019-02-22T20:42:51.520Z,6.60
2019-02-22T20:45:20.791Z,6.60
2019-02-22T20:47:50.088Z,6.60
2019-02-22T20:50:19.361Z,6.70
2019-02-22T20:52:48.639Z,6.70
2019-02-22T20:55:20.942Z,6.70
2019-02-22T20:57:50.220Z,6.70
2019-02-22T21:00:27.079Z,6.70
2019-02-22T21:02:56.359Z,6.70
2019-02-22T21:05:25.640Z,6.70
2019-02-22T21:07:55.986Z,6.70
2019-02-22T21:10:25.265Z,6.60
2019-02-22T21:12:54.547Z,6.60
2019-02-22T21:15:23.828Z,6.70
2019-02-22T21:17:53.108Z,6.60
2019-02-22T21:20:22.824Z,6.60
2019-02-22T21:22:53.175Z,6.60
2019-02-22T21:25:22.466Z,6.70
2019-02-22T21:27:51.739Z,6.60
2019-02-22T21:30:21.389Z,6.60
2019-02-22T21:32:50.672Z,6.60
2019-02-22T21:35:19.960Z,6.70
2019-02-22T21:37:49.476Z,6.70
2019-02-22T21:40:18.829Z,6.60
2019-02-22T21:42:48.181Z,6.60
2019-02-22T21:45:18.612Z,6.60
2019-02-22T21:47:54.782Z,6.60
2019-02-22T21:50:18.856Z,6.70
2019-02-22T21:52:48.139Z,6.70
2019-02-22T21:55:17.414Z,6.70
2019-02-22T21:57:46.768Z,6.70
2019-02-22T22:00:26.236Z,6.60
2019-02-22T22:02:55.745Z,6.60
2019-02-22T22:05:25.018Z,6.70
2019-02-22T22:07:54.299Z,6.70
2019-02-22T22:10:23.575Z,6.60
2019-02-22T22:12:52.853Z,6.50
2019-02-22T22:15:22.151Z,6.40
2019-02-22T22:17:51.419Z,6.40
2019-02-22T22:20:20.706Z,6.40
2019-02-22T22:22:49.984Z,6.30
2019-02-22T22:25:39.419Z,6.30
2019-02-22T22:28:08.924Z,6.20
2019-02-22T22:30:38.449Z,6.20
2019-02-22T22:33:07.972Z,6.10
2019-02-22T22:35:41.296Z,6.10
2019-02-22T22:38:11.496Z,6.00
2019-02-22T22:40:44.760Z,6.00
2019-02-22T22:43:14.045Z,6.00
2019-02-22T22:45:43.335Z,6.10
2019-02-22T22:48:12.611Z,6.00
2019-02-22T22:50:42.126Z,5.90
2019-02-22T22:53:11.411Z,5.90
2019-02-22T22:55:40.688Z,5.80
2019-02-22T22:58:10.223Z,5.70
2019-02-22T23:00:53.011Z,5.60
2019-02-22T23:03:23.636Z,5.70
2019-02-22T23:05:52.978Z,5.70
2019-02-22T23:08:22.267Z,5.60
2019-02-22T23:10:51.611Z,5.60
2019-02-22T23:13:22.588Z,5.60
2019-02-22T23:15:51.940Z,5.50
2019-02-22T23:18:21.215Z,5.50
2019-02-22T23:20:50.515Z,5.50
2019-02-22T23:23:19.814Z,5.50
2019-02-22T23:25:49.159Z,5.50
2019-02-22T23:28:18.447Z,5.40
2019-02-22T23:30:47.732Z,5.40
2019-02-22T23:33:17.011Z,5.40
2019-02-22T23:35:46.295Z,5.40
2019-02-22T23:38:15.571Z,5.40
2019-02-22T23:40:44.860Z,5.40
2019-02-22T23:43:14.148Z,5.50
2019-02-22T23:45:43.452Z,5.50
2019-02-22T23:48:12.735Z,5.50
2019-02-22T23:50:43.087Z,5.60
2019-02-22T23:53:12.376Z,5.60
2019-02-22T23:55:41.715Z,5.60
2019-02-22T23:58:11.009Z,5.60
